Time;durP1;ratioP1;P1;durP2;ratioP2;P2;SDS_P1;SDS_P2;PMS_P1;PMS_P2;Temp;Humidity;BMP_temperature;BMP_pressure;BME280_temperature;BME280_humidity;BME280_pressure;Samples;Min_cycle;Max_cycle;Signal;HPM_P1;HPM_P2
2022/08/20 00:01:36;;;;;;;14.67;6.20;;;;;;;27.78;63.19;98957.75;5167104;27;20575;-66
2022/08/20 00:04:03;;;;;;;6.47;5.90;;;;;;;27.70;63.89;98955.91;5164758;27;20236;-66
2022/08/20 00:06:32;;;;;;;6.93;6.07;;;;;;;27.58;63.36;98954.63;5159538;27;20207;-66
2022/08/20 00:08:59;;;;;;;6.20;5.67;;;;;;;27.36;63.12;98939.44;5162174;27;20189;-67
2022/08/20 00:11:28;;;;;;;6.57;6.17;;;;;;;27.46;63.79;98950.69;5163579;27;20580;-66
2022/08/20 00:13:58;;;;;;;8.97;6.23;;;;;;;27.38;64.15;98942.72;5162906;27;20202;-66
2022/08/20 00:16:31;;;;;;;9.00;6.77;;;;;;;27.30;63.92;98929.56;5162231;27;20193;-66
2022/08/20 00:18:58;;;;;;;7.43;5.57;;;;;;;27.39;63.97;98945.22;5163258;27;20197;-66
2022/08/20 00:21:25;;;;;;;7.07;6.47;;;;;;;27.37;63.71;98946.34;5154787;27;20201;-65
2022/08/20 00:23:55;;;;;;;6.07;5.73;;;;;;;27.24;64.49;98924.97;5162066;27;20201;-65
2022/08/20 00:26:23;;;;;;;6.93;6.27;;;;;;;27.32;64.25;98954.75;5167300;27;20591;-66
2022/08/20 00:28:52;;;;;;;8.07;5.93;;;;;;;27.29;64.86;98952.44;5159788;27;20201;-66
2022/08/20 00:31:22;;;;;;;11.57;6.57;;;;;;;27.29;65.69;98941.91;5168070;27;20193;-66
2022/08/20 00:33:49;;;;;;;6.13;5.67;;;;;;;27.29;65.35;98944.53;5159737;27;20213;-66
2022/08/20 00:36:17;;;;;;;6.03;5.33;;;;;;;27.28;65.74;98942.88;5161244;27;20723;-66
2022/08/20 00:38:46;;;;;;;6.00;5.50;;;;;;;27.26;65.50;98944.03;5163955;27;20197;-67
2022/08/20 00:41:16;;;;;;;6.40;5.90;;;;;;;27.25;65.63;98935.31;5162865;27;20196;-66
2022/08/20 00:43:46;;;;;;;6.87;6.37;;;;;;;27.24;65.57;98941.56;5160274;27;20193;-66
2022/08/20 00:46:18;;;;;;;6.60;6.10;;;;;;;27.20;65.66;98935.00;5157441;27;20668;-66
2022/08/20 00:48:48;;;;;;;6.77;6.37;;;;;;;27.05;65.96;98905.84;5160804;27;20197;-66
2022/08/20 00:51:26;;;;;;;6.90;6.30;;;;;;;27.20;66.66;98939.44;5162860;27;20193;-66
2022/08/20 00:53:55;;;;;;;6.67;5.63;;;;;;;27.17;66.74;98937.94;5152388;27;20702;-65
2022/08/20 00:56:22;;;;;;;8.83;6.70;;;;;;;27.15;66.40;98937.28;5171211;27;20292;-67
2022/08/20 00:58:51;;;;;;;6.77;6.23;;;;;;;27.10;66.34;98939.56;5164229;27;22036;-66
2022/08/20 01:01:21;;;;;;;6.27;5.87;;;;;;;27.03;67.06;98928.88;5164902;27;20580;-66
2022/08/20 01:03:48;;;;;;;6.33;5.93;;;;;;;27.13;67.07;98939.25;5165832;27;20229;-66
2022/08/20 01:06:15;;;;;;;8.30;6.10;;;;;;;27.11;67.08;98931.50;5162609;27;20281;-65
2022/08/20 01:08:42;;;;;;;7.03;6.63;;;;;;;27.05;67.38;98934.78;5161162;27;20204;-65
2022/08/20 01:11:11;;;;;;;5.93;5.37;;;;;;;26.96;67.42;98925.25;5164284;27;20199;-66
2022/08/20 01:13:39;;;;;;;6.17;5.67;;;;;;;26.86;67.37;98921.94;5154868;27;20213;-67
2022/08/20 01:16:14;;;;;;;6.90;6.50;;;;;;;26.95;67.36;98936.75;5152419;27;20201;-65
2022/08/20 01:18:42;;;;;;;7.57;6.63;;;;;;;26.92;67.79;98941.50;5156313;27;20197;-66
2022/08/20 01:21:10;;;;;;;6.67;6.13;;;;;;;26.76;68.09;98915.13;5156062;27;20194;-66
2022/08/20 01:23:44;;;;;;;7.20;6.17;;;;;;;26.73;68.54;98911.00;5158321;27;20593;-66
2022/08/20 01:26:15;;;;;;;6.40;5.87;;;;;;;26.71;68.31;98906.91;5170083;27;20196;-66
2022/08/20 01:28:45;;;;;;;6.90;6.40;;;;;;;26.70;68.66;98907.88;5160749;27;20674;-66
2022/08/20 01:31:14;;;;;;;6.83;6.33;;;;;;;26.73;68.80;98920.69;5163380;27;20286;-66
2022/08/20 01:33:41;;;;;;;6.40;5.87;;;;;;;26.72;69.11;98925.13;5154608;27;20223;-65
2022/08/20 01:36:12;;;;;;;7.37;6.77;;;;;;;26.69;69.24;98919.41;5162367;27;20200;-65
2022/08/20 01:38:41;;;;;;;6.93;6.30;;;;;;;26.56;70.34;98899.59;5166255;27;20284;-65
2022/08/20 01:41:24;;;;;;;6.30;5.90;;;;;;;26.66;70.48;98920.50;5169089;27;20285;-66
2022/08/20 01:43:55;;;;;;;6.70;6.03;;;;;;;26.60;71.14;98915.91;5158818;27;20196;-66
2022/08/20 01:46:25;;;;;;;6.43;6.03;;;;;;;26.60;71.34;98921.16;5160310;27;20201;-65
2022/08/20 01:48:54;;;;;;;7.20;6.63;;;;;;;26.58;71.17;98918.69;5165229;27;20679;-66
2022/08/20 01:51:24;;;;;;;6.13;5.83;;;;;;;26.55;71.32;98923.44;5159596;27;20190;-66
2022/08/20 01:53:53;;;;;;;6.97;6.47;;;;;;;26.54;71.40;98927.06;5163009;27;20216;-66
2022/08/20 01:56:24;;;;;;;9.83;6.27;;;;;;;26.49;72.09;98924.91;5159293;27;20691;-65
2022/08/20 01:58:53;;;;;;;6.63;6.00;;;;;;;26.42;72.14;98912.56;5159783;27;20197;-65
2022/08/20 02:01:23;;;;;;;7.60;6.93;;;;;;;26.48;72.31;98927.69;5157401;27;20220;-65
2022/08/20 02:03:50;;;;;;;6.93;6.53;;;;;;;26.30;72.16;98908.56;5160252;27;20283;-66
2022/08/20 02:06:18;;;;;;;8.17;7.47;;;;;;;26.43;72.17;98924.72;5170702;27;20280;-65
2022/08/20 02:08:45;;;;;;;7.70;6.67;;;;;;;26.40;71.68;98938.16;5162943;27;20205;-65
2022/08/20 02:11:12;;;;;;;7.47;6.97;;;;;;;26.39;71.37;98944.41;5161600;27;20210;-65
2022/08/20 02:13:41;;;;;;;7.60;6.93;;;;;;;26.35;71.13;98948.31;5159182;27;20217;-66
2022/08/20 02:16:08;;;;;;;7.53;6.93;;;;;;;26.22;71.69;98922.47;5157956;27;20580;-66
2022/08/20 02:18:35;;;;;;;7.83;7.33;;;;;;;26.18;71.15;98920.31;5158735;27;20669;-66
2022/08/20 02:21:03;;;;;;;7.50;7.00;;;;;;;26.25;70.04;98931.84;5168729;27;20201;-66
2022/08/20 02:23:33;;;;;;;8.00;7.20;;;;;;;26.20;69.93;98931.50;5160306;27;20200;-67
2022/08/20 02:26:00;;;;;;;8.03;7.23;;;;;;;26.16;69.69;98927.50;5161509;27;20576;-67
2022/08/20 02:28:27;;;;;;;7.93;7.20;;;;;;;26.04;69.91;98904.13;5167453;27;20709;-67
2022/08/20 02:30:55;;;;;;;8.20;7.60;;;;;;;26.11;70.39;98928.78;5162605;27;20193;-67
2022/08/20 02:33:23;;;;;;;8.60;7.93;;;;;;;26.05;70.34;98918.91;5163870;27;20710;-67
2022/08/20 02:35:52;;;;;;;8.03;7.43;;;;;;;26.08;70.06;98921.22;5165831;27;20743;-66
2022/08/20 02:38:19;;;;;;;7.90;7.37;;;;;;;26.05;70.73;98921.53;5162233;27;20188;-67
2022/08/20 02:40:48;;;;;;;8.67;8.17;;;;;;;25.96;70.92;98905.88;5161674;27;20197;-66
2022/08/20 02:43:17;;;;;;;11.47;8.47;;;;;;;25.99;71.55;98908.19;5164922;27;20565;-67
2022/08/20 02:45:44;;;;;;;8.13;7.43;;;;;;;25.96;71.47;98911.97;5166320;27;20207;-67
2022/08/20 02:48:19;;;;;;;11.73;8.47;;;;;;;25.92;72.12;98913.25;5168339;27;20220;-66
2022/08/20 02:50:48;;;;;;;9.97;9.17;;;;;;;25.92;72.32;98921.13;5162778;27;20188;-67
2022/08/20 02:53:16;;;;;;;8.80;8.30;;;;;;;25.88;71.97;98919.78;5155876;27;20637;-67
2022/08/20 02:55:43;;;;;;;9.07;8.33;;;;;;;25.88;73.05;98914.53;5161926;27;20189;-67
2022/08/20 02:58:10;;;;;;;9.03;8.43;;;;;;;25.85;72.66;98914.84;5166857;27;20288;-67
2022/08/20 03:00:37;;;;;;;9.23;8.37;;;;;;;25.83;73.76;98916.81;5167749;27;20288;-66
2022/08/20 03:03:04;;;;;;;12.20;8.63;;;;;;;25.80;74.32;98909.22;5167873;27;20200;-67
2022/08/20 03:05:32;;;;;;;11.13;8.30;;;;;;;25.78;74.49;98910.38;5168512;27;20288;-67
2022/08/20 03:07:59;;;;;;;9.30;8.60;;;;;;;25.75;74.63;98914.09;5174459;27;20571;-67
2022/08/20 03:10:30;;;;;;;9.20;8.60;;;;;;;25.71;75.11;98909.34;5162277;27;20198;-66
2022/08/20 03:12:58;;;;;;;10.53;8.70;;;;;;;25.69;75.14;98911.31;5155711;27;20637;-66
2022/08/20 03:15:25;;;;;;;8.47;7.97;;;;;;;25.64;75.60;98906.50;5165178;27;20225;-67
2022/08/20 03:17:52;;;;;;;9.00;8.30;;;;;;;25.63;75.42;98910.09;5168466;27;20204;-68
2022/08/20 03:20:19;;;;;;;9.17;8.37;;;;;;;25.56;75.19;98906.44;5164089;27;20189;-67
2022/08/20 03:22:48;;;;;;;8.97;8.13;;;;;;;25.54;75.07;98905.75;5163882;27;20190;-67
2022/08/20 03:25:15;;;;;;;8.90;8.10;;;;;;;25.40;75.43;98893.16;5158758;27;20247;-67
2022/08/20 03:27:43;;;;;;;11.83;8.97;;;;;;;25.48;75.70;98920.31;5162594;27;20193;-67
2022/08/20 03:30:14;;;;;;;9.57;8.87;;;;;;;25.48;75.78;98922.09;5161571;27;20193;-66
2022/08/20 03:32:42;;;;;;;8.57;8.03;;;;;;;25.45;75.79;98922.41;5162693;27;20201;-66
2022/08/20 03:35:12;;;;;;;9.20;8.50;;;;;;;25.42;75.55;98920.06;5172343;27;20228;-67
2022/08/20 03:37:40;;;;;;;10.13;9.17;;;;;;;25.35;74.96;98922.47;5162633;27;20204;-67
2022/08/20 03:40:11;;;;;;;8.80;8.00;;;;;;;25.30;74.86;98929.97;5161299;27;20199;-66
2022/08/20 03:42:39;;;;;;;10.13;9.27;;;;;;;25.16;74.90;98906.06;5158805;27;20212;-67
2022/08/20 03:45:07;;;;;;;11.43;9.50;;;;;;;25.20;75.46;98926.63;5168760;27;20564;-67
2022/08/20 03:47:34;;;;;;;10.90;9.43;;;;;;;25.13;75.90;98933.44;5174635;27;20202;-67
2022/08/20 03:50:02;;;;;;;11.10;9.03;;;;;;;25.07;75.71;98929.59;5162300;27;20280;-67
2022/08/20 03:52:29;;;;;;;8.93;8.27;;;;;;;25.08;76.17;98931.25;5168269;27;20570;-67
2022/08/20 03:54:57;;;;;;;9.70;8.87;;;;;;;25.06;76.60;98927.97;5167377;27;20205;-67
2022/08/20 03:57:26;;;;;;;9.67;8.97;;;;;;;25.02;76.47;98921.34;5160158;27;20193;-66
2022/08/20 03:59:53;;;;;;;8.57;7.73;;;;;;;24.98;77.37;98922.63;5167349;27;20196;-66
2022/08/20 04:02:20;;;;;;;9.30;8.37;;;;;;;24.98;77.49;98913.91;5160281;27;20735;-66
2022/08/20 04:04:46;;;;;;;9.00;8.20;;;;;;;24.83;77.36;98911.00;5157512;27;20245;-67
2022/08/20 04:07:19;;;;;;;9.17;8.40;;;;;;;24.92;77.68;98925.84;5165833;27;20212;-66
2022/08/20 04:09:46;;;;;;;9.60;8.77;;;;;;;24.81;78.58;98922.59;5159513;27;20197;-66
2022/08/20 04:12:13;;;;;;;8.87;8.17;;;;;;;24.70;78.89;98926.22;5163671;27;20200;-67
2022/08/20 04:14:41;;;;;;;10.87;7.90;;;;;;;24.69;79.24;98918.50;5151734;27;20230;-67
2022/08/20 04:17:09;;;;;;;9.90;9.00;;;;;;;24.72;79.60;98924.28;5163287;27;20197;-68
2022/08/20 04:19:37;;;;;;;10.77;9.70;;;;;;;24.77;80.00;98927.28;5160685;27;20197;-67
2022/08/20 04:22:04;;;;;;;10.83;9.50;;;;;;;24.70;79.75;98915.75;5158827;27;20294;-67
2022/08/20 04:24:31;;;;;;;11.47;10.20;;;;;;;24.88;79.88;98940.22;5163284;27;20208;-67
2022/08/20 04:26:58;;;;;;;11.53;10.47;;;;;;;24.87;80.17;98928.09;5165735;27;20745;-67
2022/08/20 04:29:25;;;;;;;16.97;10.90;;;;;;;24.89;79.85;98933.16;5166706;27;20284;-66
2022/08/20 04:31:54;;;;;;;14.77;11.63;;;;;;;24.86;80.18;98938.72;5151475;27;20209;-67
2022/08/20 04:34:21;;;;;;;11.63;10.43;;;;;;;24.58;80.58;98895.94;5162942;27;20208;-66
2022/08/20 04:36:48;;;;;;;16.77;10.83;;;;;;;24.89;81.93;98936.63;5160294;27;20254;-66
2022/08/20 04:39:16;;;;;;;10.73;9.63;;;;;;;25.00;81.58;98944.28;5161209;27;20687;-67
2022/08/20 04:41:43;;;;;;;11.40;10.33;;;;;;;25.07;80.71;98934.84;5163084;27;20204;-66
2022/08/20 04:44:11;;;;;;;11.80;10.77;;;;;;;25.22;79.24;98937.78;5168742;27;20189;-67
2022/08/20 04:46:39;;;;;;;11.33;10.27;;;;;;;25.19;78.70;98918.88;5159794;27;20201;-67
2022/08/20 04:49:07;;;;;;;11.37;10.37;;;;;;;25.43;78.85;98940.06;5168630;27;20192;-67
2022/08/20 04:51:34;;;;;;;12.53;9.43;;;;;;;25.55;78.22;98939.75;5159398;27;20204;-67
2022/08/20 04:54:03;;;;;;;10.50;9.57;;;;;;;25.66;78.55;98930.78;5164575;27;20707;-67
2022/08/20 04:56:33;;;;;;;11.07;9.80;;;;;;;25.91;78.07;98934.44;5160426;27;20584;-67
2022/08/20 04:59:02;;;;;;;11.60;10.20;;;;;;;26.19;78.04;98948.25;5158278;27;20288;-67
2022/08/20 05:01:29;;;;;;;11.07;10.37;;;;;;;26.44;77.23;98945.56;5166948;27;20281;-67
2022/08/20 05:03:57;;;;;;;11.87;9.57;;;;;;;26.64;75.34;98938.25;5167487;27;20567;-68
2022/08/20 05:06:27;;;;;;;10.37;9.10;;;;;;;26.86;74.71;98937.72;5162203;27;20193;-67
2022/08/20 05:08:55;;;;;;;10.93;10.03;;;;;;;27.05;73.73;98941.84;5161049;27;20283;-67
2022/08/20 05:11:22;;;;;;;10.53;9.57;;;;;;;27.26;73.22;98938.78;5162797;27;20268;-67
2022/08/20 05:13:49;;;;;;;10.00;9.13;;;;;;;27.47;70.80;98944.41;5159195;27;20215;-67
2022/08/20 05:16:16;;;;;;;9.33;8.63;;;;;;;27.66;70.53;98946.69;5170248;27;20269;-67
2022/08/20 05:18:45;;;;;;;13.30;9.80;;;;;;;27.89;70.50;98946.84;5166068;27;20273;-67
2022/08/20 05:21:12;;;;;;;9.80;8.83;;;;;;;28.00;67.46;98938.59;5165829;27;20197;-67
2022/08/20 05:23:41;;;;;;;11.93;9.70;;;;;;;28.17;67.21;98934.16;5172713;27;20279;-67
2022/08/20 05:26:09;;;;;;;10.27;9.30;;;;;;;28.43;67.49;98943.47;5164289;27;20732;-67
2022/08/20 05:28:38;;;;;;;10.73;9.93;;;;;;;28.57;65.44;98936.63;5161017;27;20220;-67
2022/08/20 05:31:08;;;;;;;11.93;9.87;;;;;;;28.70;64.48;98942.22;5165328;27;20272;-67
2022/08/20 05:33:38;;;;;;;9.27;8.43;;;;;;;28.79;64.10;98951.72;5166263;27;20204;-67
2022/08/20 05:36:07;;;;;;;9.67;8.77;;;;;;;28.92;64.23;98949.34;5156913;27;20197;-66
2022/08/20 05:38:35;;;;;;;9.37;8.47;;;;;;;29.00;62.08;98932.66;5161360;27;20206;-67
2022/08/20 05:41:05;;;;;;;8.83;8.20;;;;;;;29.15;62.02;98942.28;5158414;27;20189;-67
2022/08/20 05:43:32;;;;;;;9.07;8.37;;;;;;;29.26;62.01;98943.72;5158993;27;20189;-67
2022/08/20 05:46:01;;;;;;;13.53;9.03;;;;;;;29.36;62.44;98948.78;5154458;27;20292;-67
2022/08/20 05:48:28;;;;;;;10.32;9.40;;;;;;;29.45;60.75;98940.63;5160840;27;20226;-67
2022/08/20 05:50:55;;;;;;;9.27;8.48;;;;;;;29.78;61.04;98948.25;5159875;27;20220;-67
2022/08/20 05:53:24;;;;;;;16.55;8.80;;;;;;;29.98;58.65;98944.13;5157024;27;20212;-67
2022/08/20 05:55:52;;;;;;;11.27;9.15;;;;;;;30.11;57.85;98950.41;5168427;27;20676;-67
2022/08/20 05:58:25;;;;;;;8.68;8.02;;;;;;;30.14;56.51;98944.78;5157921;27;20205;-67
2022/08/20 06:00:54;;;;;;;8.63;8.07;;;;;;;30.17;56.63;98947.06;5161852;27;20208;-68
2022/08/20 06:06:07;;;;;;;9.82;9.05;;;;;;;30.44;57.76;98947.44;5160638;27;20422;-67
2022/08/20 06:08:34;;;;;;;9.13;8.43;;;;;;;30.52;56.72;98905.84;5155502;27;20194;-67
2022/08/20 06:11:00;;;;;;;8.02;7.47;;;;;;;31.02;55.53;98949.22;5158772;27;20197;-67
2022/08/20 06:13:29;;;;;;;9.30;8.70;;;;;;;31.21;53.46;98948.59;5169146;27;20272;-67
2022/08/20 06:15:56;;;;;;;10.07;9.27;;;;;;;31.33;53.22;98946.25;5165594;27;20193;-67
2022/08/20 06:18:23;;;;;;;10.20;9.38;;;;;;;31.38;51.96;98949.97;5169892;27;20197;-67
2022/08/20 06:20:50;;;;;;;9.30;8.52;;;;;;;31.30;52.66;98941.34;5164550;27;20200;-67
2022/08/20 06:23:18;;;;;;;8.75;7.95;;;;;;;31.40;53.57;98947.16;5166629;27;20813;-68
2022/08/20 06:25:49;;;;;;;7.95;7.45;;;;;;;31.44;54.10;98940.47;5156367;27;20212;-67
2022/08/20 06:28:16;;;;;;;8.15;7.65;;;;;;;31.65;53.40;98940.47;5153509;27;20220;-67
2022/08/20 06:30:44;;;;;;;10.23;7.88;;;;;;;31.88;51.65;98941.06;5161821;27;20204;-67
2022/08/20 06:33:12;;;;;;;8.15;7.53;;;;;;;31.78;49.88;98929.97;5158796;27;20607;-66
2022/08/20 06:35:38;;;;;;;7.95;7.45;;;;;;;31.89;50.28;98934.72;5159566;27;20228;-67
2022/08/20 06:38:05;;;;;;;8.85;8.13;;;;;;;32.01;50.59;98935.84;5161378;27;20194;-67
2022/08/20 06:40:34;;;;;;;8.15;7.60;;;;;;;32.02;51.46;98939.31;5160915;27;20200;-67
2022/08/20 06:43:01;;;;;;;8.45;7.70;;;;;;;31.99;50.90;98924.59;5158986;27;20196;-67
2022/08/20 06:45:31;;;;;;;8.65;7.85;;;;;;;32.06;50.88;98943.22;5165878;27;20189;-66
2022/08/20 06:48:05;;;;;;;9.13;8.43;;;;;;;32.00;50.94;98918.28;5169924;27;20189;-67
2022/08/20 06:50:38;;;;;;;8.07;7.30;;;;;;;32.36;51.22;98933.22;5167876;27;20194;-66
2022/08/20 06:53:05;;;;;;;9.38;8.57;;;;;;;32.47;50.57;98941.44;5163804;27;20193;-67
2022/08/20 06:55:32;;;;;;;8.75;8.15;;;;;;;32.36;49.96;98938.50;5158196;27;20220;-67
2022/08/20 06:58:00;;;;;;;8.30;7.60;;;;;;;32.08;49.87;98926.13;5152509;27;20729;-67
2022/08/20 07:00:30;;;;;;;9.55;8.95;;;;;;;32.31;51.19;98941.78;5157140;27;20197;-68
2022/08/20 07:02:58;;;;;;;8.98;8.25;;;;;;;32.36;51.88;98943.81;5158564;27;20707;-68
2022/08/20 07:05:27;;;;;;;9.13;8.43;;;;;;;32.59;51.23;98944.38;5150207;27;20926;-70
2022/08/20 07:07:53;;;;;;;9.48;8.88;;;;;;;32.75;50.03;98936.88;5154792;27;20872;-74
2022/08/20 07:10:23;;;;;;;13.27;8.77;;;;;;;32.58;50.97;98932.09;5156334;27;20202;-75
2022/08/20 07:12:50;;;;;;;8.48;7.72;;;;;;;32.65;50.66;98932.97;5163944;27;20188;-74
2022/08/20 07:15:20;;;;;;;8.48;7.97;;;;;;;32.78;51.19;98927.69;5158576;27;20714;-71
2022/08/20 07:17:50;;;;;;;9.82;9.02;;;;;;;32.97;50.55;98937.56;5164995;27;20207;-74
2022/08/20 07:20:17;;;;;;;10.25;8.23;;;;;;;33.00;50.80;98921.22;5154570;27;20661;-73
2022/08/20 07:22:45;;;;;;;8.43;7.63;;;;;;;33.28;51.26;98935.19;5153468;27;20206;-71
2022/08/20 07:25:14;;;;;;;8.40;7.65;;;;;;;33.33;49.75;98931.13;5166622;27;20189;-74
2022/08/20 07:27:41;;;;;;;8.02;7.60;;;;;;;33.37;48.78;98927.03;5161098;27;20336;-73
2022/08/20 07:32:56;;;;;;;10.27;9.25;;;;;;;33.58;47.36;98924.16;5159652;27;20261;-72
2022/08/20 07:35:23;;;;;;;9.00;7.97;;;;;;;33.51;48.87;98905.56;5175580;27;20218;-74
2022/08/20 07:37:53;;;;;;;8.50;7.78;;;;;;;33.76;47.45;98925.22;5156549;27;20193;-72
2022/08/20 07:40:23;;;;;;;11.15;8.55;;;;;;;33.70;47.80;98922.56;5163508;27;20245;-71
2022/08/20 07:42:51;;;;;;;9.52;8.82;;;;;;;33.84;47.73;98916.19;5156125;27;20604;-74
2022/08/20 07:45:19;;;;;;;10.88;8.85;;;;;;;34.00;47.97;98918.44;5166454;27;20617;-72
2022/08/20 07:47:48;;;;;;;8.77;7.97;;;;;;;33.97;46.66;98913.53;5158387;27;20211;-72
2022/08/20 07:50:17;;;;;;;9.43;8.70;;;;;;;33.97;48.23;98902.88;5161112;27;20192;-75
2022/08/20 07:52:45;;;;;;;10.02;9.00;;;;;;;33.94;47.48;98916.59;5164033;27;20288;-76
2022/08/20 07:55:15;;;;;;;11.02;10.10;;;;;;;33.89;47.14;98915.59;5154270;27;20257;-72
2022/08/20 07:57:45;;;;;;;11.55;10.43;;;;;;;34.01;47.34;98916.59;5169713;27;20203;-73
2022/08/20 08:00:14;;;;;;;9.32;8.43;;;;;;;34.04;46.16;98898.38;5162175;27;20262;-75
2022/08/20 08:02:41;;;;;;;8.85;8.15;;;;;;;34.30;46.10;98908.16;5159491;27;20211;-74
2022/08/20 08:05:08;;;;;;;9.52;8.85;;;;;;;34.47;46.24;98911.16;5161786;27;20595;-74
2022/08/20 08:07:35;;;;;;;8.85;7.97;;;;;;;34.71;45.23;98910.47;5154136;27;20205;-76
2022/08/20 08:10:03;;;;;;;8.80;8.20;;;;;;;34.49;44.93;98901.13;5165439;27;20204;-71
2022/08/20 08:12:37;;;;;;;8.63;8.13;;;;;;;34.56;45.37;98896.59;5158713;27;20189;-77
2022/08/20 08:15:04;;;;;;;8.38;7.18;;;;;;;34.86;45.29;98900.34;5161196;27;20220;-74
2022/08/20 08:17:31;;;;;;;7.80;7.30;;;;;;;34.88;47.32;98892.97;5160395;27;20206;-75
2022/08/20 08:19:59;;;;;;;8.75;8.20;;;;;;;35.19;45.38;98887.66;5159772;27;20241;-75
2022/08/20 08:22:26;;;;;;;7.85;7.25;;;;;;;35.41;44.52;98876.63;5155010;27;20249;-75
2022/08/20 08:24:52;;;;;;;8.00;7.53;;;;;;;35.72;45.05;98880.06;5153453;27;20204;-75
2022/08/20 08:27:20;;;;;;;10.82;9.50;;;;;;;35.37;44.15;98878.09;5164414;27;20203;-71
2022/08/20 08:29:49;;;;;;;8.95;7.88;;;;;;;34.94;45.45;98873.44;5171168;27;20623;-74
2022/08/20 08:32:16;;;;;;;8.65;8.23;;;;;;;35.06;45.22;98865.59;5167001;27;20193;-75
2022/08/20 08:34:46;;;;;;;8.25;7.55;;;;;;;35.46;44.37;98861.59;5169838;27;20218;-76
2022/08/20 08:37:13;;;;;;;7.75;7.13;;;;;;;35.85;44.02;98849.75;5154083;27;20276;-75
2022/08/20 08:39:41;;;;;;;8.77;8.02;;;;;;;35.89;44.80;98852.81;5153577;27;20657;-73
2022/08/20 08:42:24;;;;;;;8.35;7.78;;;;;;;35.57;43.08;98849.41;5160441;27;20279;-75
2022/08/20 08:44:54;;;;;;;8.70;7.95;;;;;;;35.34;43.10;98847.34;5168627;27;20253;-70
2022/08/20 08:47:28;;;;;;;8.50;8.00;;;;;;;35.39;43.36;98841.34;5167697;27;20665;-76
2022/08/20 08:49:56;;;;;;;9.80;9.13;;;;;;;35.23;43.56;98846.22;5167551;27;20632;-73
2022/08/20 08:52:27;;;;;;;8.85;8.32;;;;;;;35.04;45.59;98836.50;5168899;27;20203;-73
2022/08/20 08:55:00;;;;;;;7.88;7.25;;;;;;;35.00;44.68;98829.97;5172866;27;20684;-74
2022/08/20 08:57:27;;;;;;;8.60;7.90;;;;;;;35.21;46.77;98832.28;5160157;27;20295;-73
2022/08/20 08:59:59;;;;;;;8.30;7.68;;;;;;;35.41;46.25;98831.31;5155511;27;20205;-75
2022/08/20 09:02:28;;;;;;;10.65;8.80;;;;;;;35.75;44.93;98823.59;5151573;27;20260;-75
2022/08/20 09:04:57;;;;;;;9.75;8.55;;;;;;;35.76;42.90;98824.41;5163737;27;20229;-72
2022/08/20 09:07:27;;;;;;;7.65;7.20;;;;;;;35.82;43.83;98823.53;5155077;27;20193;-74
2022/08/20 09:09:54;;;;;;;7.90;7.40;;;;;;;36.01;43.15;98827.81;5155958;27;20660;-73
2022/08/20 09:12:23;;;;;;;7.82;7.25;;;;;;;35.79;44.54;98823.97;5154084;27;20200;-75
2022/08/20 09:14:51;;;;;;;8.27;7.57;;;;;;;36.04;43.32;98824.72;5168238;27;20231;-72
2022/08/20 09:17:21;;;;;;;7.25;6.75;;;;;;;36.17;42.20;98815.75;5153682;27;20682;-74
2022/08/20 09:19:49;;;;;;;9.55;6.45;;;;;;;36.11;42.23;98785.44;5159199;27;20190;-76
2022/08/20 09:22:18;;;;;;;7.68;6.95;;;;;;;36.44;43.41;98816.22;5160581;27;20194;-72
2022/08/20 09:25:31;;;;;;;8.32;7.43;;;;;;;36.37;41.98;98813.66;5158639;27;20256;-71
2022/08/20 09:27:58;;;;;;;7.43;6.97;;;;;;;35.95;43.41;98806.56;5166813;27;20197;-75
2022/08/20 09:30:25;;;;;;;7.05;6.55;;;;;;;35.91;43.11;98806.19;5154847;27;20197;-72
2022/08/20 09:32:53;;;;;;;7.40;6.50;;;;;;;35.91;43.89;98786.69;5155787;27;20197;-76
2022/08/20 09:35:20;;;;;;;7.38;6.97;;;;;;;35.91;42.68;98803.50;5158116;27;20854;-76
2022/08/20 09:37:47;;;;;;;7.82;7.22;;;;;;;36.01;44.17;98795.81;5151463;27;20201;-75
2022/08/20 09:40:14;;;;;;;8.05;7.55;;;;;;;36.13;43.05;98799.38;5154938;27;20688;-76
2022/08/20 09:42:41;;;;;;;10.68;7.78;;;;;;;36.06;44.26;98792.50;5160762;27;20205;-76
2022/08/20 09:45:09;;;;;;;9.50;6.57;;;;;;;36.24;43.48;98789.78;5150207;27;20198;-76
2022/08/20 09:47:36;;;;;;;7.43;6.43;;;;;;;36.35;42.57;98786.38;5149929;27;20197;-72
2022/08/20 09:50:05;;;;;;;7.40;7.00;;;;;;;36.63;42.23;98785.78;5154165;27;20568;-73
2022/08/20 09:52:36;;;;;;;8.43;6.95;;;;;;;36.71;42.13;98780.09;5160436;27;20224;-76
2022/08/20 09:55:13;;;;;;;7.05;6.53;;;;;;;36.43;42.12;98777.22;5153476;27;20220;-76
2022/08/20 09:57:40;;;;;;;7.35;6.85;;;;;;;36.55;41.77;98778.09;5152103;27;20580;-69
2022/08/20 10:00:10;;;;;;;6.95;6.65;;;;;;;36.15;41.83;98765.28;5153715;27;20205;-72
2022/08/20 10:02:37;;;;;;;7.20;6.57;;;;;;;36.23;43.41;98767.63;5153116;27;20205;-76
2022/08/20 10:05:06;;;;;;;7.30;6.90;;;;;;;35.89;42.21;98765.59;5154071;27;20229;-74
2022/08/20 10:07:33;;;;;;;7.20;6.68;;;;;;;35.69;42.75;98749.00;5159451;27;20204;-76
2022/08/20 10:10:00;;;;;;;8.35;6.50;;;;;;;36.00;42.11;98758.66;5154517;27;20201;-74
2022/08/20 10:12:27;;;;;;;7.18;6.35;;;;;;;36.23;42.04;98751.59;5149418;27;20629;-76
2022/08/20 10:14:55;;;;;;;6.57;6.28;;;;;;;36.45;42.67;98754.56;5157603;27;20227;-76
2022/08/20 10:17:22;;;;;;;7.35;6.85;;;;;;;36.36;41.84;98749.78;5161544;27;20263;-76
2022/08/20 10:19:49;;;;;;;7.60;6.88;;;;;;;36.33;41.34;98745.72;5161502;27;20209;-75
2022/08/20 10:22:17;;;;;;;7.35;6.68;;;;;;;36.24;42.05;98745.25;5154006;27;20288;-74
2022/08/20 10:24:44;;;;;;;7.25;6.47;;;;;;;36.17;42.47;98746.34;5146386;27;20201;-75
2022/08/20 10:27:11;;;;;;;8.38;7.07;;;;;;;36.10;41.72;98746.44;5150178;27;20205;-77
2022/08/20 10:29:38;;;;;;;6.88;6.45;;;;;;;36.12;41.53;98749.72;5148448;27;20217;-77
2022/08/20 10:32:13;;;;;;;6.57;6.28;;;;;;;36.32;41.38;98739.56;5163783;27;20672;-76
2022/08/20 10:34:41;;;;;;;7.53;7.05;;;;;;;36.33;40.70;98717.16;5138400;27;20202;-77
2022/08/20 10:37:09;;;;;;;9.15;7.40;;;;;;;36.52;40.93;98736.59;5154234;27;20199;-77
2022/08/20 10:39:37;;;;;;;8.20;7.38;;;;;;;36.73;42.21;98729.94;5153040;27;20575;-74
2022/08/20 10:42:04;;;;;;;7.25;6.85;;;;;;;37.05;40.61;98728.59;5150653;27;20197;-74
2022/08/20 10:44:31;;;;;;;7.05;6.68;;;;;;;36.90;39.71;98725.53;5159609;27;20204;-77
2022/08/20 10:46:57;;;;;;;7.65;7.13;;;;;;;36.82;41.18;98717.88;5168491;27;20189;-75
2022/08/20 10:49:24;;;;;;;8.07;6.90;;;;;;;36.72;41.59;98706.94;5144858;27;20572;-76
2022/08/20 10:51:51;;;;;;;10.43;7.75;;;;;;;36.80;40.60;98717.31;5153531;27;20728;-76
2022/08/20 10:54:18;;;;;;;8.50;7.75;;;;;;;36.72;41.01;98712.28;5164504;27;20199;-75
2022/08/20 10:56:46;;;;;;;7.20;6.60;;;;;;;36.81;40.82;98713.56;5151709;27;20604;-75
2022/08/20 10:59:13;;;;;;;8.15;7.35;;;;;;;36.84;39.68;98699.75;5172034;27;20211;-74
2022/08/20 11:01:39;;;;;;;7.00;6.70;;;;;;;36.89;40.36;98707.06;5163611;27;20254;-77
2022/08/20 11:04:06;;;;;;;8.38;7.95;;;;;;;37.03;40.96;98697.81;5152695;27;20194;-76
2022/08/20 11:06:33;;;;;;;7.25;6.85;;;;;;;37.15;39.38;98699.44;5155377;27;20185;-75
2022/08/20 11:09:00;;;;;;;7.22;6.82;;;;;;;37.25;39.85;98688.97;5155662;27;20189;-76
2022/08/20 11:11:27;;;;;;;7.45;6.85;;;;;;;37.18;39.61;98680.25;5160006;27;20208;-75
2022/08/20 11:13:55;;;;;;;7.88;6.95;;;;;;;37.05;36.93;98691.19;5155948;27;20205;-76
2022/08/20 11:16:22;;;;;;;6.75;6.35;;;;;;;36.90;37.73;98665.97;5147875;27;20226;-77
2022/08/20 11:18:49;;;;;;;8.18;6.03;;;;;;;37.01;36.46;98678.50;5158022;27;20229;-75
2022/08/20 11:21:16;;;;;;;7.05;6.38;;;;;;;36.96;37.20;98675.72;5154211;27;20197;-74
2022/08/20 11:23:43;;;;;;;6.18;5.88;;;;;;;36.98;36.75;98671.75;5156202;27;20215;-76
2022/08/20 11:26:10;;;;;;;5.88;5.32;;;;;;;36.77;36.63;98667.00;5156115;27;20565;-73
2022/08/20 11:28:37;;;;;;;5.53;5.22;;;;;;;36.72;36.10;98658.84;5164221;27;20201;-76
2022/08/20 11:31:06;;;;;;;5.47;5.28;;;;;;;36.86;36.02;98665.59;5164891;27;20192;-76
2022/08/20 11:33:33;;;;;;;6.30;5.85;;;;;;;37.06;37.80;98665.28;5167478;27;20556;-76
2022/08/20 11:35:59;;;;;;;5.68;5.38;;;;;;;37.33;36.69;98664.53;5153951;27;20209;-77
2022/08/20 11:38:26;;;;;;;5.10;4.80;;;;;;;37.59;36.56;98654.38;5155680;27;20198;-76
2022/08/20 11:40:54;;;;;;;5.07;4.68;;;;;;;37.83;34.87;98661.25;5154892;27;20270;-74
2022/08/20 11:43:20;;;;;;;5.78;5.55;;;;;;;37.43;33.67;98649.72;5157874;27;20690;-75